»·PEaware :: PSV130 KLAS-KSNA

PSV130 :: KLAS-KSNA

FLIGHT INFORMATION

Flight Status: Arrived
Operator:
Power Set Virtual (website)
More flights by this operator :: More flights under this callsign
Pilot: Anonymous 24489 (24489)
Aircraft: CANADAIR CL-600 CRJ-700
(CRJ7)
More flights by this aircraft type
Origin: KLAS McCarran Intl
United States
Destination: KSNA John Wayne-Orange Co
United States
More flights between these airports :: More routes between these airports
Route: +BOACH8 WHIGG FEYLA DSNEE4
File this flight plan on PilotEdge
Remarks: RMK / SIMBRIEF
Altitude:
(Current/Filed)
30,000ft
Speed:
(Current/Filed)
405kts
Departed: 24-Jun-20 08:19 PM
Arrived: 24-Jun-20 09:02 PM
Distance/Time
Traveled:
197nm/0:43
Distance/Time
To Go:
Arrived

Flight Plot

Page will automatically refresh every two minutes.

Flight plan parsing failed; only flown route is shown


Map Options




Map Legend


Flown Route
Filed Route
Departure Airport
Arrival Airport
Navaid (VOR, NDB)
Fix

Horizontal Profiles

Position Reports

Time Latitude Longitude Heading Altitude Ground
Speed
24-Jun-20 19:53 36.080859 -115.140168 136 2188ft 0kts
24-Jun-20 19:54 36.080859 -115.140168 136 2188ft 0kts
24-Jun-20 19:55 36.080859 -115.140168 136 2188ft 0kts
24-Jun-20 19:56 36.080859 -115.140168 136 2188ft 0kts
24-Jun-20 19:57 36.080859 -115.140168 136 2188ft 0kts
24-Jun-20 19:58 36.080859 -115.140168 136 2188ft 0kts
24-Jun-20 19:59 36.080859 -115.140168 136 2188ft 0kts
24-Jun-20 20:00 36.080859 -115.140168 136 2188ft 0kts
24-Jun-20 20:01 36.080859 -115.140168 136 2188ft 0kts
24-Jun-20 20:02 36.080859 -115.140168 136 2188ft 0kts
24-Jun-20 20:03 36.080859 -115.140168 136 2188ft 0kts
24-Jun-20 20:04 36.080859 -115.140168 136 2188ft 0kts
24-Jun-20 20:05 36.080859 -115.140168 136 2188ft 0kts
24-Jun-20 20:06 36.080859 -115.140168 136 2188ft 0kts
24-Jun-20 20:07 36.080859 -115.140168 136 2188ft 0kts
24-Jun-20 20:08 36.080859 -115.140168 136 2188ft 0kts
24-Jun-20 20:09 36.081269 -115.140775 103 2188ft 2kts
24-Jun-20 20:10 36.081530 -115.141576 172 2188ft 2kts
24-Jun-20 20:11 36.081700 -115.141583 179 2188ft 0kts
24-Jun-20 20:12 36.079017 -115.141583 180 2188ft 0kts
24-Jun-20 20:13 36.078306 -115.140601 66 2188ft 11kts
24-Jun-20 20:14 36.078261 -115.132989 90 2188ft 25kts
24-Jun-20 20:15 36.078242 -115.126892 89 2188ft 12kts
24-Jun-20 20:16 36.078279 -115.122735 101 2188ft 12kts
24-Jun-20 20:17 36.076406 -115.121959 269 2188ft 12kts
24-Jun-20 20:18 36.076898 -115.167444 271 3308ft 203kts
24-Jun-20 20:19 36.075925 -115.237870 252 7537ft 214kts
24-Jun-20 20:20 36.021894 -115.276409 205 7899ft 242kts
24-Jun-20 20:21 35.963838 -115.306560 193 7020ft 217kts
24-Jun-20 20:22 35.905437 -115.310618 185 9091ft 210kts
24-Jun-20 20:23 35.840921 -115.315063 179 11370ft 246kts
24-Jun-20 20:24 35.771075 -115.305559 175 14001ft 259kts
24-Jun-20 20:25 35.692546 -115.297262 187 15302ft 317kts
24-Jun-20 20:26 35.622208 -115.366348 231 17444ft 337kts
24-Jun-20 20:27 35.559638 -115.455453 229 20000ft 350kts
24-Jun-20 20:28 35.492138 -115.544015 229 22322ft 362kts
24-Jun-20 20:29 35.423279 -115.636615 230 24410ft 373kts
24-Jun-20 20:30 35.352602 -115.732194 230 26381ft 382kts
24-Jun-20 20:31 35.280478 -115.830040 230 28105ft 393kts
24-Jun-20 20:32 35.202850 -115.932809 228 28803ft 429kts
24-Jun-20 20:33 35.118266 -116.039349 228 29801ft 452kts
24-Jun-20 20:35 35.031338 -116.148585 228 29806ft 442kts
24-Jun-20 20:36 34.946258 -116.254996 228 29822ft 435kts
24-Jun-20 20:37 34.862077 -116.360156 229 29823ft 429kts
24-Jun-20 20:38 34.780601 -116.464912 229 29879ft 424kts
24-Jun-20 20:39 34.699381 -116.567680 228 29884ft 420kts
24-Jun-20 20:40 34.609287 -116.658847 220 29433ft 431kts
24-Jun-20 20:41 34.516145 -116.747111 222 26468ft 416kts
24-Jun-20 20:42 34.429897 -116.844269 227 20934ft 425kts
24-Jun-20 20:43 34.349952 -116.939313 224 14645ft 385kts
24-Jun-20 20:44 34.280351 -117.018075 225 14226ft 325kts
24-Jun-20 20:45 34.206724 -117.079781 210 13276ft 318kts
24-Jun-20 20:46 34.130167 -117.125637 205 12118ft 292kts
24-Jun-20 20:47 34.061449 -117.161378 205 12005ft 253kts
24-Jun-20 20:48 33.996163 -117.196751 214 11951ft 259kts
24-Jun-20 20:48 33.954538 -117.252646 233 10644ft 274kts
24-Jun-20 20:50 33.898323 -117.335601 229 8849ft 272kts
24-Jun-20 20:51 33.883406 -117.409086 284 7458ft 247kts
24-Jun-20 20:52 33.894984 -117.482791 275 6866ft 215kts
24-Jun-20 20:53 33.901620 -117.552374 275 5275ft 220kts
24-Jun-20 20:53 33.906962 -117.606205 275 4075ft 203kts
24-Jun-20 20:54 33.913734 -117.673920 275 3998ft 205kts
24-Jun-20 20:56 33.907043 -117.746254 199 3982ft 186kts
24-Jun-20 20:56 33.867572 -117.749548 194 4029ft 184kts
24-Jun-20 20:57 33.820457 -117.776587 209 3114ft 177kts
24-Jun-20 20:58 33.775757 -117.805251 208 2151ft 180kts
24-Jun-20 20:59 33.733785 -117.831997 208 1253ft 168kts
24-Jun-20 21:00 33.698586 -117.854202 207 435ft 131kts
24-Jun-20 21:01 33.671708 -117.871361 207 63ft 23kts
24-Jun-20 21:02 33.669158 -117.871602 135 63ft 0kts
24-Jun-20 21:03 33.669449 -117.870487 35 63ft 13kts
24-Jun-20 21:04 33.671603 -117.868462 34 63ft 10kts
24-Jun-20 21:05 33.674450 -117.866180 49 63ft 0kts
24-Jun-20 21:06 33.675056 -117.865207 126 63ft 7kts
24-Jun-20 21:07 33.674977 -117.865046 118 63ft 0kts
24-Jun-20 21:08 33.674977 -117.865046 118 63ft 0kts
24-Jun-20 21:09 33.674977 -117.865046 118 63ft 0kts
24-Jun-20 21:10 33.674977 -117.865046 118 63ft 0kts

Navigation Log

Ident Type
Flight plan parsing failed, navigation log unavailable